createdAt,value
2023-07-03T00:00:58.139Z,63.87
2023-07-03T00:01:58.255Z,63.78
2023-07-03T00:02:58.298Z,63.87
2023-07-03T00:03:57.460Z,63.57
2023-07-03T00:04:57.606Z,64.07
2023-07-03T00:05:57.517Z,63.37
2023-07-03T00:06:57.668Z,63.57
2023-07-03T00:07:57.725Z,64.07
2023-07-03T00:08:57.857Z,64.58
2023-07-03T00:09:56.941Z,64.18
2023-07-03T00:10:57.080Z,63.78
2023-07-03T00:11:58.036Z,64.28
2023-07-03T00:12:58.121Z,64.58
2023-07-03T00:13:57.250Z,64.48
2023-07-03T00:14:57.221Z,64.28
2023-07-03T00:15:57.283Z,64.79
2023-07-03T00:16:57.446Z,64.28
2023-07-03T00:17:57.501Z,64.38
2023-07-03T00:18:56.564Z,64.07
2023-07-03T00:19:57.643Z,64.18
2023-07-03T00:20:57.709Z,64.28
2023-07-03T00:21:57.799Z,64.07
2023-07-03T00:22:56.927Z,64.28
2023-07-03T00:23:57.987Z,64.58
2023-07-03T00:24:58.037Z,64.58
2023-07-03T00:25:56.158Z,64.79
2023-07-03T00:26:57.225Z,64.69
2023-07-03T00:27:57.283Z,64.38
2023-07-03T00:28:57.381Z,64.69
2023-07-03T00:29:57.476Z,64.48
2023-07-03T00:30:57.652Z,64.79
2023-07-03T00:31:57.762Z,65.59
2023-07-03T00:32:57.785Z,65.39
2023-07-03T00:33:57.800Z,65.19
2023-07-03T00:34:57.095Z,64.92
2023-07-03T00:35:56.955Z,65.02
2023-07-03T00:36:57.131Z,65.62
2023-07-03T00:37:57.110Z,65.22
2023-07-03T00:38:57.451Z,65.22
2023-07-03T00:39:56.478Z,65.53
2023-07-03T00:40:57.450Z,65.93
2023-07-03T00:41:57.739Z,65.62
2023-07-03T00:42:56.630Z,66.24
2023-07-03T00:43:56.656Z,65.73
2023-07-03T00:44:56.749Z,65.62
2023-07-03T00:45:57.062Z,65.73
2023-07-03T00:46:56.862Z,65.93
2023-07-03T00:47:58.035Z,66.74
2023-07-03T00:48:56.980Z,66.13
2023-07-03T00:49:57.059Z,66.74
2023-07-03T00:50:57.171Z,66.44
2023-07-03T00:51:56.260Z,67.05
2023-07-03T00:52:56.408Z,66.97
2023-07-03T00:53:57.464Z,66.67
2023-07-03T00:54:57.485Z,66.97
2023-07-03T00:55:56.597Z,67.28
2023-07-03T00:56:56.686Z,67.58
2023-07-03T00:57:56.779Z,66.97
2023-07-03T00:58:55.876Z,67.38
2023-07-03T01:00:02.725Z,66.97
2023-07-03T01:00:56.060Z,67.48
2023-07-03T01:01:57.164Z,67.28
2023-07-03T01:02:57.245Z,67.99
2023-07-03T01:03:57.273Z,67.79
2023-07-03T01:04:57.428Z,67.48
2023-07-03T01:05:56.714Z,67.89
2023-07-03T01:06:55.579Z,68.19
2023-07-03T01:07:56.637Z,67.68
2023-07-03T01:08:56.711Z,67.48
2023-07-03T01:09:56.884Z,67.48
2023-07-03T01:10:56.976Z,67.79
2023-07-03T01:11:57.216Z,67.68
2023-07-03T01:12:57.178Z,68.19
2023-07-03T01:13:57.291Z,68.19
2023-07-03T01:14:56.422Z,68.49
2023-07-03T01:15:56.478Z,67.89
2023-07-03T01:16:56.558Z,67.89
2023-07-03T01:17:57.900Z,68.09
2023-07-03T01:18:56.718Z,67.92
2023-07-03T01:19:56.882Z,68.12
2023-07-03T01:20:55.988Z,68.43
2023-07-03T01:21:56.122Z,68.12
2023-07-03T01:22:57.137Z,68.23
2023-07-03T01:23:57.268Z,68.43
2023-07-03T01:24:55.426Z,68.52
2023-07-03T01:25:55.495Z,69.03
2023-07-03T01:26:56.573Z,68.52
2023-07-03T01:27:55.738Z,68.52
2023-07-03T01:28:56.791Z,68.73
2023-07-03T01:29:56.913Z,69.24
2023-07-03T01:30:57.007Z,68.83
2023-07-03T01:31:57.129Z,68.63
2023-07-03T01:32:56.208Z,68.63
2023-07-03T01:33:56.301Z,69.24
2023-07-03T01:34:56.417Z,69.13
2023-07-03T01:35:56.570Z,69.24
2023-07-03T01:36:56.616Z,69.17
2023-07-03T01:37:55.738Z,69.07
2023-07-03T01:38:55.894Z,69.37
2023-07-03T01:39:56.973Z,69.17
2023-07-03T01:40:56.040Z,69.47
2023-07-03T01:41:56.203Z,69.88
2023-07-03T01:42:55.353Z,70.18
2023-07-03T01:43:55.418Z,69.88
2023-07-03T01:44:55.533Z,70.01
2023-07-03T01:45:55.771Z,70.42
2023-07-03T01:46:56.748Z,70.01
2023-07-03T01:47:55.869Z,70.11
2023-07-03T01:48:57.003Z,69.71
2023-07-03T01:49:56.026Z,69.51
2023-07-03T01:50:56.127Z,70.32
2023-07-03T01:51:55.261Z,70.42
2023-07-03T01:52:55.427Z,70.76
2023-07-03T01:53:56.469Z,70.55
2023-07-03T01:54:55.591Z,70.76
2023-07-03T01:55:55.648Z,70.86
2023-07-03T01:56:56.735Z,70.76
2023-07-03T01:57:56.870Z,70.86
2023-07-03T01:58:54.973Z,70.76
2023-07-03T01:59:56.035Z,70.96
2023-07-03T02:00:56.192Z,71.16
2023-07-03T02:01:56.220Z,71.06
2023-07-03T02:02:56.424Z,70.86
2023-07-03T02:03:56.547Z,71.40
2023-07-03T02:04:56.640Z,71.20
2023-07-03T02:05:56.676Z,71.60
2023-07-03T02:06:55.728Z,71.60
2023-07-03T02:07:55.896Z,71.40
2023-07-03T02:08:55.932Z,71.60
2023-07-03T02:09:56.158Z,71.50
2023-07-03T02:10:56.206Z,71.60
2023-07-03T02:11:56.497Z,71.60
2023-07-03T02:12:55.457Z,71.70
2023-07-03T02:13:56.512Z,71.50
2023-07-03T02:14:56.627Z,71.73
2023-07-03T02:15:54.770Z,71.73
2023-07-03T02:16:55.920Z,71.94
2023-07-03T02:17:57.120Z,72.34
2023-07-03T02:18:56.027Z,72.34
2023-07-03T02:19:56.340Z,72.25
2023-07-03T02:20:56.309Z,72.25
2023-07-03T02:21:56.883Z,72.14
2023-07-03T02:22:56.535Z,72.04
2023-07-03T02:23:55.600Z,72.25
2023-07-03T02:24:55.681Z,72.25
2023-07-03T02:25:55.817Z,72.55
2023-07-03T02:26:55.987Z,72.55
2023-07-03T02:27:56.035Z,72.85
2023-07-03T02:28:56.144Z,72.75
2023-07-03T02:29:56.285Z,72.65
2023-07-03T02:30:56.432Z,72.45
2023-07-03T02:31:54.508Z,72.65
2023-07-03T02:32:54.692Z,72.65
2023-07-03T02:33:55.720Z,72.85
2023-07-03T02:34:54.878Z,72.78
2023-07-03T02:35:54.994Z,73.19
2023-07-03T02:36:55.078Z,73.30
2023-07-03T02:37:55.216Z,73.70
2023-07-03T02:38:55.285Z,73.80
2023-07-03T02:39:54.383Z,73.60
2023-07-03T02:40:54.439Z,73.80
2023-07-03T02:41:54.514Z,73.70
2023-07-03T02:42:54.674Z,74.01
2023-07-03T02:43:55.754Z,74.24
2023-07-03T02:44:54.874Z,74.04
2023-07-03T02:45:55.936Z,74.24
2023-07-03T02:46:55.303Z,74.15
2023-07-03T02:47:56.217Z,73.94
2023-07-03T02:48:55.303Z,73.63
2023-07-03T02:49:55.423Z,73.84
2023-07-03T02:50:55.480Z,73.94
2023-07-03T02:51:54.710Z,73.74
2023-07-03T02:52:55.761Z,73.84
2023-07-03T02:53:54.916Z,73.94
2023-07-03T02:54:55.049Z,73.74
2023-07-03T02:55:54.177Z,74.15
2023-07-03T02:56:55.193Z,74.04
2023-07-03T02:57:55.353Z,74.15
2023-07-03T02:58:55.416Z,74.38
2023-07-03T02:59:55.545Z,74.08
2023-07-03T03:00:55.818Z,74.48
2023-07-03T03:01:55.776Z,74.69
2023-07-03T03:02:55.971Z,74.79
2023-07-03T03:03:55.989Z,74.89
2023-07-03T03:04:55.261Z,74.58
2023-07-03T03:05:55.145Z,74.18
2023-07-03T03:06:55.350Z,74.38
2023-07-03T03:07:55.414Z,74.69
2023-07-03T03:08:54.522Z,74.89
2023-07-03T03:09:54.631Z,75.20
2023-07-03T03:10:54.843Z,75.09
2023-07-03T03:11:55.896Z,75.54
2023-07-03T03:12:54.000Z,75.33
2023-07-03T03:13:54.132Z,75.23
2023-07-03T03:14:54.212Z,75.02
2023-07-03T03:15:54.526Z,74.89
2023-07-03T03:16:54.529Z,74.89
2023-07-03T03:17:54.601Z,74.89
2023-07-03T03:18:54.807Z,74.99
2023-07-03T03:19:54.787Z,74.99
2023-07-03T03:20:53.892Z,74.69
2023-07-03T03:21:54.976Z,75.20
2023-07-03T03:22:55.071Z,75.20
2023-07-03T03:23:55.228Z,75.30
2023-07-03T03:24:55.259Z,75.40
2023-07-03T03:25:55.427Z,75.81
2023-07-03T03:26:55.490Z,75.74
2023-07-03T03:27:54.647Z,76.35
2023-07-03T03:28:54.719Z,76.45
2023-07-03T03:29:54.835Z,76.25
2023-07-03T03:30:54.951Z,76.15
2023-07-03T03:31:55.022Z,75.84
2023-07-03T03:32:55.151Z,76.15
2023-07-03T03:33:55.236Z,76.04
2023-07-03T03:34:55.454Z,75.95
2023-07-03T03:35:55.474Z,76.35
2023-07-03T03:36:54.542Z,76.04
2023-07-03T03:37:54.705Z,76.25
2023-07-03T03:38:54.796Z,76.35
2023-07-03T03:39:54.948Z,76.15
2023-07-03T03:40:54.429Z,76.04
2023-07-03T03:41:55.179Z,76.25
2023-07-03T03:42:55.269Z,76.04
2023-07-03T03:43:55.484Z,75.95
2023-07-03T03:44:54.470Z,76.15
2023-07-03T03:45:54.657Z,76.45
2023-07-03T03:46:53.879Z,76.56
2023-07-03T03:47:55.045Z,76.86
2023-07-03T03:48:55.223Z,76.45
2023-07-03T03:49:54.283Z,76.76
2023-07-03T03:50:53.378Z,76.76
2023-07-03T03:51:53.579Z,76.35
2023-07-03T03:52:54.633Z,76.65
2023-07-03T03:53:53.813Z,76.56
2023-07-03T03:54:54.901Z,76.65
2023-07-03T03:55:54.234Z,76.96
2023-07-03T03:56:55.220Z,76.65
2023-07-03T03:57:53.340Z,76.76
2023-07-03T03:58:53.521Z,76.56
2023-07-03T03:59:53.611Z,76.45
2023-07-03T04:00:54.728Z,76.76
2023-07-03T04:01:53.891Z,76.35
2023-07-03T04:02:54.047Z,76.65
2023-07-03T04:03:55.122Z,76.76
2023-07-03T04:04:53.276Z,77.17
2023-07-03T04:05:53.626Z,77.06
2023-07-03T04:06:53.458Z,76.96
2023-07-03T04:07:53.624Z,76.65
2023-07-03T04:08:53.760Z,77.06
2023-07-03T04:09:53.946Z,77.17
2023-07-03T04:10:54.030Z,76.96
2023-07-03T04:11:53.143Z,77.26
2023-07-03T04:12:53.288Z,76.86
2023-07-03T04:13:53.434Z,77.03
2023-07-03T04:14:53.527Z,77.03
2023-07-03T04:15:55.300Z,77.03
2023-07-03T04:16:54.783Z,77.26
2023-07-03T04:17:54.836Z,77.03
2023-07-03T04:18:54.945Z,76.92
2023-07-03T04:19:54.039Z,77.53
2023-07-03T04:20:53.154Z,77.53
2023-07-03T04:21:53.382Z,77.94
2023-07-03T04:22:53.403Z,78.05
2023-07-03T04:23:53.508Z,77.44
2023-07-03T04:24:53.664Z,77.53
2023-07-03T04:25:54.727Z,77.74
2023-07-03T04:26:52.874Z,77.64
2023-07-03T04:27:53.084Z,77.44
2023-07-03T04:28:53.123Z,77.53
2023-07-03T04:29:53.253Z,77.33
2023-07-03T04:30:53.409Z,77.13
2023-07-03T04:31:53.558Z,76.89
2023-07-03T04:32:54.594Z,77.91
2023-07-03T04:33:53.738Z,76.89
2023-07-03T04:34:52.851Z,77.20
2023-07-03T04:35:53.219Z,77.09
2023-07-03T04:36:53.080Z,77.09
2023-07-03T04:37:53.244Z,76.99
2023-07-03T04:38:53.389Z,76.99
2023-07-03T04:39:53.512Z,77.09
2023-07-03T04:40:53.629Z,76.68
2023-07-03T04:41:52.736Z,77.50
2023-07-03T04:42:52.911Z,77.20
2023-07-03T04:43:53.042Z,77.29
2023-07-03T04:44:53.809Z,77.09
2023-07-03T04:45:53.696Z,76.89
2023-07-03T04:46:53.447Z,76.68
2023-07-03T04:47:53.633Z,77.20
2023-07-03T04:48:52.700Z,77.40
2023-07-03T04:49:53.759Z,77.47
2023-07-03T04:50:53.928Z,77.47
2023-07-03T04:51:53.018Z,77.16
2023-07-03T04:52:53.303Z,76.95
2023-07-03T04:53:53.256Z,77.67
2023-07-03T04:54:53.376Z,77.16
2023-07-03T04:55:53.728Z,77.06
2023-07-03T04:56:53.519Z,76.95
2023-07-03T04:57:52.574Z,76.45
2023-07-03T04:58:53.645Z,76.75
2023-07-03T04:59:52.775Z,76.95
2023-07-03T05:00:53.894Z,76.86
2023-07-03T05:01:53.995Z,77.47
2023-07-03T05:02:53.166Z,77.06
2023-07-03T05:03:53.318Z,77.26
2023-07-03T05:04:53.293Z,76.86
2023-07-03T05:05:53.655Z,76.95
2023-07-03T05:06:52.457Z,77.16
2023-07-03T05:07:52.580Z,76.65
2023-07-03T05:08:53.683Z,76.55
2023-07-03T05:09:53.727Z,77.16
2023-07-03T05:10:52.905Z,77.56
2023-07-03T05:11:53.074Z,77.97
2023-07-03T05:12:53.115Z,77.06
2023-07-03T05:13:53.157Z,76.95
2023-07-03T05:14:53.291Z,77.16
2023-07-03T05:15:52.676Z,77.56
2023-07-03T05:16:53.452Z,77.26
2023-07-03T05:17:53.733Z,77.87
2023-07-03T05:18:52.678Z,77.87
2023-07-03T05:19:53.718Z,77.67
2023-07-03T05:20:53.870Z,78.34
2023-07-03T05:21:52.955Z,77.63
2023-07-03T05:22:53.007Z,77.53
2023-07-03T05:23:53.092Z,77.94
2023-07-03T05:24:52.172Z,77.77
2023-07-03T05:25:53.470Z,77.94
2023-07-03T05:26:53.244Z,77.53
2023-07-03T05:27:52.387Z,77.83
2023-07-03T05:28:52.578Z,77.73
2023-07-03T05:29:52.624Z,77.63
2023-07-03T05:30:53.784Z,78.34
2023-07-03T05:31:52.949Z,78.14
2023-07-03T05:32:52.060Z,78.75
2023-07-03T05:33:53.096Z,78.24
2023-07-03T05:34:53.263Z,78.55
2023-07-03T05:35:54.826Z,78.55
2023-07-03T05:36:52.472Z,78.55
2023-07-03T05:37:52.609Z,78.44
2023-07-03T05:38:52.708Z,78.24
2023-07-03T05:39:52.926Z,78.24
2023-07-03T05:40:53.836Z,78.55
2023-07-03T05:41:52.932Z,78.24
2023-07-03T05:42:53.003Z,78.55
2023-07-03T05:43:53.122Z,78.41
2023-07-03T05:44:52.278Z,78.41
2023-07-03T05:45:53.599Z,77.80
2023-07-03T05:46:53.520Z,78.61
2023-07-03T05:47:53.601Z,78.00
2023-07-03T05:48:52.701Z,77.70
2023-07-03T05:49:53.786Z,78.61
2023-07-03T05:50:52.834Z,78.91
2023-07-03T05:51:53.020Z,77.76
2023-07-03T05:52:53.062Z,77.45
2023-07-03T05:53:53.157Z,78.57
2023-07-03T05:54:53.316Z,78.06
2023-07-03T05:55:52.617Z,78.06
2023-07-03T05:56:52.584Z,78.17
2023-07-03T05:57:52.651Z,79.18
2023-07-03T05:58:53.740Z,79.08
2023-07-03T05:59:52.797Z,77.45
2023-07-03T06:00:52.895Z,78.17
2023-07-03T06:01:52.933Z,77.97
2023-07-03T06:02:52.126Z,77.86
2023-07-03T06:03:53.152Z,77.56
2023-07-03T06:04:53.261Z,77.97
2023-07-03T06:05:52.646Z,77.25
2023-07-03T06:06:52.460Z,77.45
2023-07-03T06:07:54.000Z,77.56
2023-07-03T06:08:51.678Z,77.66
2023-07-03T06:09:51.765Z,77.97
2023-07-03T06:10:51.838Z,78.37
2023-07-03T06:11:52.928Z,77.76
2023-07-03T06:12:52.095Z,77.56
2023-07-03T06:13:52.292Z,77.97
2023-07-03T06:14:53.305Z,77.36
2023-07-03T06:15:53.700Z,78.17
2023-07-03T06:16:52.543Z,77.66
2023-07-03T06:17:52.652Z,77.15
2023-07-03T06:18:52.672Z,77.36
2023-07-03T06:19:51.893Z,77.56
2023-07-03T06:20:51.943Z,77.12
2023-07-03T06:21:52.022Z,77.32
2023-07-03T06:22:52.139Z,77.72
2023-07-03T06:23:52.253Z,77.32
2023-07-03T06:24:52.284Z,76.51
2023-07-03T06:25:51.768Z,77.22
2023-07-03T06:26:51.594Z,76.31
2023-07-03T06:27:51.643Z,76.81
2023-07-03T06:28:51.777Z,76.91
2023-07-03T06:29:51.883Z,76.51
2023-07-03T06:30:55.027Z,77.42
2023-07-03T06:31:52.096Z,77.01
2023-07-03T06:32:52.246Z,76.81
2023-07-03T06:33:52.322Z,76.91
2023-07-03T06:34:52.481Z,76.51
2023-07-03T06:35:51.880Z,77.22
2023-07-03T06:36:51.718Z,76.61
2023-07-03T06:37:52.710Z,76.61
2023-07-03T06:38:52.794Z,76.57
2023-07-03T06:39:52.921Z,76.78
2023-07-03T06:40:53.014Z,76.67
2023-07-03T06:41:52.134Z,76.87
2023-07-03T06:42:51.339Z,76.57
2023-07-03T06:43:52.446Z,76.47
2023-07-03T06:44:51.483Z,76.78
2023-07-03T06:45:51.795Z,76.57
2023-07-03T06:46:51.690Z,76.98
2023-07-03T06:47:52.826Z,77.38
2023-07-03T06:48:52.824Z,76.87
2023-07-03T06:49:51.971Z,76.17
2023-07-03T06:50:51.069Z,75.96
2023-07-03T06:51:52.129Z,76.37
2023-07-03T06:52:51.337Z,76.98
2023-07-03T06:53:51.453Z,76.37
2023-07-03T06:54:52.479Z,76.33
2023-07-03T06:55:51.792Z,76.13
2023-07-03T06:56:52.755Z,76.03
2023-07-03T06:57:52.812Z,76.74
2023-07-03T06:58:51.015Z,76.03
2023-07-03T06:59:52.456Z,75.82
2023-07-03T07:00:51.197Z,76.03
2023-07-03T07:01:52.315Z,75.82
2023-07-03T07:02:52.529Z,76.13
2023-07-03T07:03:52.577Z,76.50
2023-07-03T07:04:52.712Z,76.40
2023-07-03T07:05:52.208Z,75.89
2023-07-03T07:06:50.845Z,76.40
2023-07-03T07:07:50.915Z,75.49
2023-07-03T07:08:51.067Z,75.69
2023-07-03T07:09:51.633Z,75.79
2023-07-03T07:10:51.290Z,75.38
2023-07-03T07:11:51.321Z,74.98
2023-07-03T07:12:51.469Z,75.89
2023-07-03T07:13:52.264Z,76.67
2023-07-03T07:14:51.625Z,76.46
2023-07-03T07:15:51.251Z,75.35
2023-07-03T07:16:51.000Z,75.55
2023-07-03T07:17:52.237Z,75.04
2023-07-03T07:18:50.997Z,76.16
2023-07-03T07:19:52.029Z,74.95
2023-07-03T07:20:51.189Z,75.85
2023-07-03T07:21:52.334Z,74.84
2023-07-03T07:22:52.383Z,74.64
2023-07-03T07:23:52.463Z,74.95
2023-07-03T07:24:50.618Z,74.84
2023-07-03T07:25:50.858Z,75.55
2023-07-03T07:26:50.778Z,75.15
2023-07-03T07:27:50.930Z,74.33
2023-07-03T07:28:50.989Z,75.25
2023-07-03T07:29:51.077Z,75.04
2023-07-03T07:30:51.233Z,75.96
2023-07-03T07:31:51.226Z,74.54
2023-07-03T07:32:51.402Z,74.95
2023-07-03T07:33:51.440Z,74.84
2023-07-03T07:34:50.454Z,74.95
2023-07-03T07:35:50.724Z,74.44
2023-07-03T07:36:50.633Z,74.84
2023-07-03T07:37:50.706Z,75.04
2023-07-03T07:38:52.061Z,75.15
2023-07-03T07:39:50.898Z,75.25
2023-07-03T07:40:51.105Z,75.52
2023-07-03T07:41:52.048Z,75.21
2023-07-03T07:42:52.148Z,75.82
2023-07-03T07:43:52.262Z,75.62
2023-07-03T07:44:50.387Z,74.91
2023-07-03T07:45:50.630Z,75.42
2023-07-03T07:46:50.572Z,75.72
2023-07-03T07:47:50.699Z,75.52
2023-07-03T07:48:50.907Z,74.81
2023-07-03T07:49:50.814Z,74.60
2023-07-03T07:50:50.933Z,74.51
2023-07-03T07:51:51.035Z,75.11
2023-07-03T07:52:51.129Z,75.21
2023-07-03T07:53:51.243Z,74.51
2023-07-03T07:54:50.330Z,74.10
2023-07-03T07:55:50.591Z,74.51
2023-07-03T07:56:50.378Z,74.20
2023-07-03T07:57:50.494Z,74.51
2023-07-03T07:58:51.693Z,74.77
2023-07-03T07:59:50.701Z,75.48
2023-07-03T08:00:50.799Z,74.07
2023-07-03T08:01:50.885Z,74.16
2023-07-03T08:02:51.089Z,74.37
2023-07-03T08:03:51.044Z,74.03
2023-07-03T08:04:50.388Z,73.22
2023-07-03T08:05:50.420Z,73.22
2023-07-03T08:06:50.217Z,74.84
2023-07-03T08:07:50.356Z,73.52
2023-07-03T08:08:50.399Z,73.43
2023-07-03T08:09:50.599Z,73.52
2023-07-03T08:10:50.647Z,74.63
2023-07-03T08:11:50.664Z,73.02
2023-07-03T08:12:50.762Z,72.81
2023-07-03T08:13:50.867Z,73.02
2023-07-03T08:14:51.004Z,73.52
2023-07-03T08:15:50.414Z,74.13
2023-07-03T08:16:50.229Z,74.23
2023-07-03T08:17:50.373Z,73.43
2023-07-03T08:18:50.386Z,73.63
2023-07-03T08:19:50.432Z,73.72
2023-07-03T08:20:50.749Z,73.93
2023-07-03T08:21:50.678Z,73.32
2023-07-03T08:22:50.798Z,72.51
2023-07-03T08:23:50.823Z,72.72
2023-07-03T08:24:49.807Z,74.13
2023-07-03T08:25:50.181Z,74.23
2023-07-03T08:26:50.057Z,74.43
2023-07-03T08:27:50.060Z,73.93
2023-07-03T08:28:50.171Z,75.14
2023-07-03T08:29:50.203Z,74.54
2023-07-03T08:30:50.351Z,74.13
2023-07-03T08:31:50.426Z,74.63
2023-07-03T08:32:50.495Z,75.24
2023-07-03T08:33:50.523Z,74.67
2023-07-03T08:37:49.932Z,75.07
2023-07-03T08:38:49.917Z,74.77
2023-07-03T08:39:50.017Z,74.98
2023-07-03T08:40:50.295Z,74.87
2023-07-03T08:41:50.209Z,75.18
2023-07-03T08:42:50.300Z,75.07
2023-07-03T08:43:50.395Z,74.54
2023-07-03T08:44:50.472Z,75.24
2023-07-03T08:45:49.522Z,74.74
2023-07-03T08:46:58.684Z,74.13
2023-07-03T08:47:50.740Z,74.23
2023-07-03T08:48:49.711Z,74.43
2023-07-03T08:49:49.790Z,74.90
2023-07-03T08:50:50.890Z,74.03
2023-07-03T08:51:50.954Z,75.21
2023-07-03T08:52:50.091Z,74.30
2023-07-03T08:53:50.535Z,75.31
2023-07-03T08:54:51.195Z,75.21
2023-07-03T08:55:51.229Z,75.01
2023-07-03T08:56:51.301Z,74.60
2023-07-03T08:57:49.358Z,75.17
2023-07-03T08:58:49.472Z,75.37
2023-07-03T08:59:49.566Z,73.96
2023-07-03T09:00:49.917Z,74.16
2023-07-03T09:01:49.789Z,74.77
2023-07-03T09:02:49.826Z,74.16
2023-07-03T09:03:50.080Z,73.55
2023-07-03T09:04:49.935Z,73.05
2023-07-03T09:05:50.264Z,73.55
2023-07-03T09:06:50.027Z,73.15
2023-07-03T09:07:50.120Z,73.25
2023-07-03T09:08:49.167Z,73.55
2023-07-03T09:09:49.248Z,73.35
2023-07-03T09:10:50.418Z,73.75
2023-07-03T09:11:49.441Z,73.75
2023-07-03T09:12:49.608Z,71.23
2023-07-03T09:13:49.621Z,69.51
2023-07-03T09:14:50.741Z,70.32
2023-07-03T09:15:51.052Z,70.29
2023-07-03T09:16:49.991Z,70.39
2023-07-03T09:17:51.424Z,70.59
2023-07-03T09:18:50.020Z,69.65
2023-07-03T09:19:49.040Z,70.83
2023-07-03T09:20:49.379Z,69.11
2023-07-03T09:21:49.300Z,69.38
2023-07-03T09:22:49.816Z,67.16
2023-07-03T09:23:49.410Z,66.56
2023-07-03T09:24:50.361Z,65.85
2023-07-03T09:25:51.510Z,66.25
2023-07-03T09:26:50.611Z,65.65
2023-07-03T09:27:49.928Z,66.69
2023-07-03T09:28:49.934Z,67.77
2023-07-03T09:29:49.888Z,67.47
2023-07-03T09:30:49.253Z,66.56
2023-07-03T09:31:49.139Z,66.93
2023-07-03T09:32:49.089Z,65.92
2023-07-03T09:33:50.102Z,66.33
2023-07-03T09:34:49.331Z,64.21
2023-07-03T09:35:50.398Z,63.90
2023-07-03T09:36:49.369Z,63.90
2023-07-03T09:37:50.479Z,65.92
2023-07-03T09:38:49.566Z,63.17
2023-07-03T09:39:49.773Z,61.66
2023-07-03T09:40:49.968Z,61.43
2023-07-03T09:41:48.756Z,60.22
2023-07-03T09:42:50.116Z,59.72
2023-07-03T09:43:48.967Z,60.39
2023-07-03T09:44:49.037Z,59.62
2023-07-03T09:45:49.373Z,59.11
2023-07-03T09:46:49.240Z,61.50
2023-07-03T09:47:50.294Z,58.07
2023-07-03T09:48:49.386Z,57.81
2023-07-03T09:49:49.619Z,56.90
2023-07-03T09:51:05.774Z,57.90
2023-07-03T09:51:50.489Z,58.61
2023-07-03T09:53:03.660Z,58.91
2023-07-03T09:53:50.635Z,59.31
2023-07-03T09:54:48.758Z,58.91
2023-07-03T09:55:48.894Z,58.01
2023-07-03T09:56:48.806Z,57.81
2023-07-03T09:57:48.854Z,59.31
2023-07-03T09:58:48.891Z,58.74
2023-07-03T09:59:48.986Z,58.44
2023-07-03T10:00:49.509Z,59.34
2023-07-03T10:03:49.325Z,59.55
2023-07-03T10:06:49.528Z,59.95
2023-07-03T10:07:48.827Z,59.92
2023-07-03T10:08:49.993Z,57.50
2023-07-03T10:11:48.918Z,56.29
2023-07-03T10:12:49.111Z,55.79
2023-07-03T10:13:49.236Z,55.69
2023-07-03T10:14:49.084Z,56.77
2023-07-03T10:15:49.292Z,55.08
2023-07-03T10:16:50.220Z,56.49
2023-07-03T10:17:49.649Z,56.09
2023-07-03T10:18:48.440Z,56.29
2023-07-03T10:19:49.444Z,55.89
2023-07-03T10:20:49.551Z,55.59
2023-07-03T10:21:49.736Z,58.28
2023-07-03T10:22:48.680Z,55.96
2023-07-03T10:23:48.870Z,54.96
2023-07-03T10:24:48.801Z,53.75
2023-07-03T10:25:49.243Z,53.05
2023-07-03T10:26:48.961Z,54.05
2023-07-03T10:27:49.002Z,53.25
2023-07-03T10:28:49.539Z,53.65
2023-07-03T10:29:48.136Z,52.84
2023-07-03T10:30:48.245Z,53.55
2023-07-03T10:31:48.353Z,54.25
2023-07-03T10:32:48.431Z,52.24
2023-07-03T10:33:48.449Z,53.32
2023-07-03T10:34:48.594Z,52.22
2023-07-03T10:35:48.783Z,52.89
2023-07-03T10:36:48.717Z,51.99
2023-07-03T10:37:48.782Z,53.30
2023-07-03T10:38:48.888Z,51.89
2023-07-03T10:39:48.950Z,51.89
2023-07-03T10:40:48.143Z,54.10
2023-07-03T10:41:48.124Z,52.26
2023-07-03T10:42:48.150Z,52.26
2023-07-03T10:43:48.246Z,52.26
2023-07-03T10:44:48.342Z,52.77
2023-07-03T10:45:48.799Z,51.84
2023-07-03T10:46:48.533Z,52.64
2023-07-03T10:47:48.954Z,50.03
2023-07-03T10:48:48.628Z,50.46
2023-07-03T10:49:48.710Z,52.67
2023-07-03T10:50:49.164Z,50.66
2023-07-03T10:51:49.032Z,51.36
2023-07-03T10:52:47.880Z,50.28
2023-07-03T10:53:47.978Z,50.98
2023-07-03T10:54:48.059Z,51.41
2023-07-03T10:55:48.223Z,51.71
2023-07-03T10:56:48.219Z,51.51
2023-07-03T10:57:49.273Z,52.29
2023-07-03T10:58:48.331Z,53.37
2023-07-03T10:59:48.401Z,52.64
2023-07-03T11:00:48.481Z,52.24
2023-07-03T11:01:48.687Z,51.61
2023-07-03T11:02:48.644Z,51.11
2023-07-03T11:03:49.895Z,50.38
2023-07-03T11:04:48.867Z,52.59
2023-07-03T11:05:47.853Z,49.08
2023-07-03T11:06:47.909Z,49.28
2023-07-03T11:07:48.056Z,49.08
2023-07-03T11:08:48.075Z,49.58
2023-07-03T11:09:48.123Z,48.78
2023-07-03T11:10:48.233Z,52.09
2023-07-03T11:11:48.317Z,51.59
2023-07-03T11:12:48.391Z,49.78
2023-07-03T11:13:48.485Z,49.21
2023-07-03T11:14:48.498Z,50.11
2023-07-03T11:15:48.584Z,47.09
2023-07-03T11:16:48.724Z,49.60
2023-07-03T11:22:47.979Z,49.33
2023-07-03T11:23:48.094Z,49.53
2023-07-03T11:24:48.146Z,49.33
2023-07-03T11:28:48.462Z,50.18
2023-07-03T11:29:47.334Z,49.18
2023-07-03T11:30:48.568Z,50.48
2023-07-03T11:31:48.554Z,49.58
2023-07-03T11:32:48.498Z,49.80
2023-07-03T11:39:47.956Z,51.21
2023-07-03T11:40:48.163Z,50.93
2023-07-03T11:43:48.170Z,50.73
2023-07-03T11:44:47.220Z,51.54
2023-07-03T11:45:47.293Z,49.93
2023-07-03T11:46:47.421Z,50.43
2023-07-03T11:47:47.413Z,51.31
2023-07-03T11:48:47.444Z,50.91
2023-07-03T11:49:47.541Z,51.44
2023-07-03T11:50:47.628Z,50.53
2023-07-03T11:51:48.564Z,50.84
2023-07-03T11:52:47.675Z,50.23
2023-07-03T11:53:47.772Z,49.22
2023-07-03T11:54:47.783Z,49.83
2023-07-03T11:55:48.003Z,50.53
2023-07-03T11:56:47.921Z,51.64
2023-07-03T11:57:53.123Z,51.74
2023-07-03T11:58:47.990Z,50.84
2023-07-03T11:59:47.068Z,51.84
2023-07-03T12:00:47.206Z,51.74
2023-07-03T12:01:47.238Z,51.24
2023-07-03T12:02:47.332Z,50.93
2023-07-03T12:03:47.358Z,51.04
2023-07-03T12:04:49.797Z,51.44
2023-07-03T12:05:47.609Z,51.64
2023-07-03T12:06:47.567Z,52.72
2023-07-03T12:07:47.523Z,54.00
2023-07-03T12:08:47.598Z,50.66
2023-07-03T12:09:47.628Z,50.56
2023-07-03T12:10:47.669Z,50.16
2023-07-03T12:11:47.744Z,49.96
2023-07-03T12:12:47.888Z,50.34
2023-07-03T12:13:46.923Z,51.24
2023-07-03T12:14:46.954Z,49.81
2023-07-03T12:15:46.983Z,51.21
2023-07-03T12:16:46.998Z,49.31
2023-07-03T12:17:47.265Z,49.61
2023-07-03T12:18:47.095Z,48.21
2023-07-03T12:19:47.210Z,48.41
2023-07-03T12:20:47.220Z,48.41
2023-07-03T12:21:47.330Z,49.13
2023-07-03T12:22:47.305Z,50.54
2023-07-03T12:23:49.210Z,51.14
2023-07-03T12:24:47.301Z,51.54
2023-07-03T12:25:47.513Z,51.44
2023-07-03T12:26:47.461Z,51.14
2023-07-03T12:27:47.437Z,50.24
2023-07-03T12:28:47.517Z,49.86
2023-07-03T12:29:48.577Z,50.06
2023-07-03T12:30:46.602Z,50.18
2023-07-03T12:31:46.679Z,49.78
2023-07-03T12:32:46.732Z,50.81
2023-07-03T12:33:46.813Z,50.31
2023-07-03T12:34:46.785Z,51.89
2023-07-03T12:35:46.869Z,50.09
2023-07-03T12:36:50.557Z,50.89
2023-07-03T12:37:47.018Z,50.99
2023-07-03T12:38:47.091Z,50.66
2023-07-03T12:39:47.125Z,50.16
2023-07-03T12:40:47.187Z,51.06
2023-07-03T12:41:47.205Z,51.14
2023-07-03T12:42:48.251Z,50.63
2023-07-03T12:43:53.584Z,50.01
2023-07-03T12:44:48.296Z,50.92
2023-07-03T12:45:48.621Z,49.54
2023-07-03T12:46:46.402Z,49.93
2023-07-03T12:47:47.385Z,51.44
2023-07-03T12:48:47.425Z,50.84
2023-07-03T12:49:46.523Z,49.04
2023-07-03T12:50:47.515Z,51.26
2023-07-03T12:51:47.667Z,51.84
2023-07-03T12:52:47.587Z,50.06
2023-07-03T12:53:47.640Z,49.84
2023-07-03T12:54:46.694Z,49.63
2023-07-03T12:55:46.837Z,50.54
2023-07-03T12:56:46.841Z,50.94
2023-07-03T12:57:46.890Z,49.33
2023-07-03T12:58:46.920Z,50.04
2023-07-03T12:59:47.038Z,50.21
2023-07-03T13:00:46.995Z,49.08
2023-07-03T13:01:47.082Z,51.09
2023-07-03T13:02:47.198Z,48.26
2023-07-03T13:03:48.153Z,49.16
2023-07-03T13:04:47.201Z,50.16
2023-07-03T13:05:46.457Z,48.44
2023-07-03T13:06:47.229Z,48.74
2023-07-03T13:07:47.222Z,50.54
2023-07-03T13:08:46.284Z,50.84
2023-07-03T13:09:47.378Z,48.84
2023-07-03T13:10:46.357Z,48.14
2023-07-03T13:11:46.450Z,49.34
2023-07-03T13:12:46.445Z,49.24
2023-07-03T13:13:46.539Z,48.92
2023-07-03T13:14:46.575Z,48.54
2023-07-03T13:15:46.562Z,49.54
2023-07-03T13:16:46.715Z,49.64
2023-07-03T13:17:46.780Z,50.44